Austin, TX (78705)

7:04 PM CDT on July 27, 2016 (GMT -0500)
Hancock | | Change Station

Elev 623 ft 30.30 °N, 97.73 °W | Updated 4 seconds ago

Clear
Clear
86.4 °F
Feels Like 91 °F
N
2.7
Wind Variable Wind from East
Gusts 2.7 mph

Today
High -- | Low -- °F
--% Chance of Precip.
Yesterday
High -- | Low -- °F
Precip. -- in
Pressure 29.90 in
Visibility 10.0 miles
Clouds Clear
Heat Index 91 °F
Dew Point 70 °F
Humidity 58%
Rainfall 0.27 in
Snow Depth Not available.
6:46 AM 8:27 PM
Last Quarter, 38% visible
METAR KATT 272351Z AUTO 21003KT 10SM CLR 31/21 A2994 RMK AO2 SLP125 T03060211 10333 20256 55001
Pressure 29.90 in
Visibility 10.0 miles
Clouds Clear
Heat Index 91 °F
Dew Point 70 °F
Humidity 58%
Rainfall 0.27 in
Snow Depth Not available.
6:46 AM 8:27 PM
Last Quarter, 38% visible
METAR KATT 272351Z AUTO 21003KT 10SM CLR 31/21 A2994 RMK AO2 SLP125 T03060211 10333 20256 55001

10-Day Weather Forecast

Almanac

Astronomy

Jul. 27, 2016 Rise Set
Actual Time
Civil Twilight
Nautical Twilight
Astronomical Twilight
Moon
Length of Visible Light
Length of Day
Tomorrow will be .
, % of the Moon is Illuminated

Today's Extremes

State Highs State Lows

Community

WunderPhotos

Upload Photos

1,927,963 photos uploaded!

WunderBlog® & News

Nearby

Air Quality

  Air Quality AQ Index Pollutant
Not available.

Snow Depth

Station Depth Elevation

Earthquake Activity

City Distance Mag. Time & Date
Minimum magnitude displayed is 2.5.

Coastal Water Temperatures

Place Temperature

Stations

Nearby Weather Stations

Station Location Temp. Windchill Dew Point Humidity Wind Precip. Elev Updated Type
                   

Watches & Warnings

There are currently no watches in effect.